createdAt,value
2018-08-30T00:02:14.513Z,22.4
2018-08-30T00:12:29.902Z,22.1
2018-08-30T00:17:37.824Z,22.1
2018-08-30T00:22:45.769Z,22
2018-08-30T00:27:53.870Z,21.9
2018-08-30T00:33:01.553Z,21.8
2018-08-30T00:38:09.497Z,21.6
2018-08-30T00:43:17.415Z,21.6
2018-08-30T00:48:25.309Z,21.4
2018-08-30T00:53:33.651Z,21.3
2018-08-30T00:58:41.320Z,21.1
2018-08-30T01:03:49.371Z,21
2018-08-30T01:08:57.511Z,20.9
2018-08-30T01:14:05.341Z,20.6
2018-08-30T01:19:13.292Z,20.5
2018-08-30T01:24:21.271Z,20.3
2018-08-30T01:29:29.339Z,20.2
2018-08-30T01:39:45.415Z,20.1
2018-08-30T01:50:01.462Z,19.9
2018-08-30T01:55:09.518Z,20
2018-08-30T02:00:17.477Z,20
2018-08-30T02:05:25.503Z,19.9
2018-08-30T02:10:33.880Z,19.9
2018-08-30T02:20:49.578Z,19.9
2018-08-30T02:25:57.601Z,19.9
2018-08-30T02:31:05.635Z,19.7
2018-08-30T02:36:13.683Z,19.7
2018-08-30T02:41:21.728Z,19.7
2018-08-30T02:51:37.787Z,19.8
2018-08-30T02:56:45.856Z,19.9
2018-08-30T03:01:54.020Z,19.9
2018-08-30T03:07:02.098Z,20
2018-08-30T03:17:17.926Z,20
2018-08-30T03:22:25.925Z,20
2018-08-30T03:27:33.924Z,20.1
2018-08-30T03:42:57.899Z,20.3
2018-08-30T03:48:06.341Z,20.3
2018-08-30T03:53:14.088Z,20.6
2018-08-30T03:58:21.907Z,20.6
2018-08-30T04:03:29.907Z,20.6
2018-08-30T04:08:37.884Z,20.7
2018-08-30T04:13:45.865Z,20.8
2018-08-30T04:18:53.851Z,20.8
2018-08-30T04:24:01.790Z,21
2018-08-30T04:29:09.768Z,21.1
2018-08-30T04:34:18.688Z,21.1
2018-08-30T04:39:27.049Z,21.2
2018-08-30T04:44:36.390Z,21.2
2018-08-30T04:49:41.846Z,21.2
2018-08-30T04:54:49.478Z,21.4
2018-08-30T04:59:57.319Z,21.6
2018-08-30T05:05:05.235Z,21.6
2018-08-30T05:10:13.127Z,21.6
2018-08-30T05:15:21.232Z,21.7
2018-08-30T05:20:28.960Z,21.8
2018-08-30T05:25:36.879Z,22
2018-08-30T05:30:44.776Z,22
2018-08-30T05:35:52.710Z,22.1
2018-08-30T05:41:00.434Z,22.1
2018-08-30T05:46:08.254Z,22.3
2018-08-30T05:51:16.593Z,22.4
2018-08-30T05:56:24.100Z,22.4
2018-08-30T06:01:31.927Z,22.5
2018-08-30T06:16:55.478Z,22.7
2018-08-30T06:22:03.248Z,22.7
2018-08-30T06:27:11.065Z,22.8
2018-08-30T06:32:19.013Z,22.9
2018-08-30T06:42:34.578Z,23.1
2018-08-30T06:47:42.443Z,23.1
2018-08-30T06:52:50.360Z,23.2
2018-08-30T06:57:58.008Z,23.1
2018-08-30T07:03:05.797Z,23.1
2018-08-30T07:08:13.557Z,23.2
2018-08-30T07:13:21.264Z,23.3
2018-08-30T07:18:29.157Z,23.3
2018-08-30T07:28:44.687Z,23.5
2018-08-30T07:33:52.493Z,23.5
2018-08-30T07:39:00.390Z,23.7
2018-08-30T07:44:07.994Z,23.8
2018-08-30T07:49:15.744Z,24.3
2018-08-30T07:59:31.420Z,25.1
2018-08-30T08:04:38.916Z,25.6
2018-08-30T08:09:46.553Z,26.2
2018-08-30T08:14:54.155Z,26.5
2018-08-30T08:20:01.773Z,27.4
2018-08-30T08:25:09.226Z,28
2018-08-30T08:30:17.808Z,28.7
2018-08-30T08:35:24.201Z,29
2018-08-30T08:40:31.637Z,29.5
2018-08-30T08:45:39.104Z,29.9
2018-08-30T08:50:46.484Z,30.6
2018-08-30T08:55:53.841Z,31.3
2018-08-30T09:01:01.180Z,31.5
2018-08-30T09:06:08.466Z,31.6
2018-08-30T09:11:15.783Z,32.1
2018-08-30T09:16:22.976Z,32.5
2018-08-30T09:26:37.381Z,33.8
2018-08-30T09:31:44.539Z,33.8
2018-08-30T09:41:58.840Z,33.7
2018-08-30T09:47:05.992Z,33.7
2018-08-30T09:52:13.328Z,33.4
2018-08-30T09:57:20.343Z,33.3
2018-08-30T10:02:27.519Z,33.2
2018-08-30T10:07:34.682Z,32.8
2018-08-30T10:12:41.872Z,32.3
2018-08-30T10:17:49.081Z,32.6
2018-08-30T10:22:56.302Z,32.6
2018-08-30T10:28:03.484Z,32.3
2018-08-30T10:33:10.673Z,32.9
2018-08-30T10:38:19.804Z,33.3
2018-08-30T10:43:25.031Z,33.7
2018-08-30T10:48:32.087Z,34.2
2018-08-30T10:53:39.161Z,34.7
2018-08-30T10:58:46.236Z,34.6
2018-08-30T11:03:53.286Z,34.9
2018-08-30T11:09:00.407Z,35.4
2018-08-30T11:14:07.359Z,36
2018-08-30T11:24:21.318Z,36.7
2018-08-30T11:29:28.224Z,36.8
2018-08-30T11:34:35.120Z,37
2018-08-30T11:39:42.167Z,36.9
2018-08-30T11:49:55.924Z,36
2018-08-30T11:55:02.962Z,36
2018-08-30T12:00:10.005Z,35.5
2018-08-30T12:05:17.061Z,35
2018-08-30T12:10:23.939Z,34.7
2018-08-30T12:20:37.928Z,34.8
2018-08-30T12:30:52.085Z,35.1
2018-08-30T12:35:59.264Z,35.1
2018-08-30T12:41:06.117Z,35.1
2018-08-30T12:51:20.293Z,34.8
2018-08-30T12:56:27.313Z,34.7
2018-08-30T13:06:41.608Z,34
2018-08-30T13:11:48.709Z,33.5
2018-08-30T13:22:03.173Z,32.4
2018-08-30T13:27:10.353Z,32
2018-08-30T13:32:17.387Z,31.5
2018-08-30T13:37:24.713Z,31.3
2018-08-30T13:47:39.252Z,30.6
2018-08-30T13:52:46.644Z,30.2
2018-08-30T13:57:54.032Z,30.1
2018-08-30T14:03:01.281Z,29.9
2018-08-30T14:13:16.188Z,29.8
2018-08-30T14:18:23.541Z,30
2018-08-30T14:23:30.880Z,29.9
2018-08-30T14:28:38.335Z,29.8
2018-08-30T14:33:45.781Z,29.6
2018-08-30T14:38:53.155Z,29.4
2018-08-30T14:54:15.538Z,29.3
2018-08-30T14:59:22.842Z,29.3
2018-08-30T15:04:30.286Z,29.2
2018-08-30T15:14:45.095Z,29.2
2018-08-30T15:19:52.492Z,29.2
2018-08-30T15:24:59.933Z,29.2
2018-08-30T15:30:07.612Z,29.1
2018-08-30T15:35:14.785Z,29
2018-08-30T15:40:22.229Z,29
2018-08-30T15:45:29.717Z,28.8
2018-08-30T15:50:37.138Z,28.6
2018-08-30T15:55:44.576Z,28.6
2018-08-30T16:05:59.579Z,28.3
2018-08-30T16:16:14.552Z,28.1
2018-08-30T16:21:22.013Z,28.1
2018-08-30T16:31:37.012Z,28
2018-08-30T16:36:44.584Z,27.9
2018-08-30T16:41:51.961Z,27.9
2018-08-30T16:46:59.533Z,27.9
2018-08-30T16:52:06.937Z,28
2018-08-30T16:57:14.489Z,28.1
2018-08-30T17:02:21.823Z,28.1
2018-08-30T17:07:29.479Z,28.1
2018-08-30T17:12:36.879Z,28.1
2018-08-30T17:17:44.466Z,28.2
2018-08-30T17:22:51.827Z,28.1
2018-08-30T17:27:59.392Z,28
2018-08-30T17:33:06.796Z,27.9
2018-08-30T17:38:17.547Z,27.9
2018-08-30T17:43:21.794Z,27.8
2018-08-30T17:48:29.276Z,27.7
2018-08-30T17:53:36.996Z,27.6
2018-08-30T17:58:44.268Z,27.6
2018-08-30T18:03:51.861Z,27.4
2018-08-30T18:08:59.461Z,27.2
2018-08-30T18:14:06.905Z,27.1
2018-08-30T18:19:14.363Z,27.1
2018-08-30T18:24:21.993Z,27
2018-08-30T18:29:29.460Z,26.8
2018-08-30T18:34:37.053Z,26.7
2018-08-30T18:39:44.725Z,26.5
2018-08-30T18:44:52.614Z,26.5
2018-08-30T18:49:59.817Z,26.3
2018-08-30T18:55:07.871Z,26.2
2018-08-30T19:00:15.282Z,26
2018-08-30T19:05:22.749Z,25.8
2018-08-30T19:10:30.383Z,25.6
2018-08-30T19:15:37.950Z,25.5
2018-08-30T19:20:45.697Z,25.3
2018-08-30T19:25:53.414Z,25.2
2018-08-30T19:31:00.908Z,25.1
2018-08-30T19:36:08.547Z,25
2018-08-30T19:41:16.310Z,24.9
2018-08-30T19:46:23.914Z,24.8
2018-08-30T19:56:39.368Z,24.7
2018-08-30T20:01:47.044Z,24.6
2018-08-30T20:06:54.747Z,24.6
2018-08-30T20:12:02.498Z,24.6
2018-08-30T20:17:10.234Z,24.4
2018-08-30T20:22:17.994Z,24.4
2018-08-30T20:27:25.674Z,24.4
2018-08-30T20:32:33.365Z,24.1
2018-08-30T20:37:41.060Z,24.2
2018-08-30T20:42:48.815Z,24.1
2018-08-30T20:53:04.306Z,23.8
2018-08-30T20:58:12.027Z,23.8
2018-08-30T21:03:19.791Z,23.7
2018-08-30T21:08:27.570Z,23.7
2018-08-30T21:13:35.322Z,23.5
2018-08-30T21:18:43.101Z,23.5
2018-08-30T21:23:50.880Z,23.4
2018-08-30T21:28:58.659Z,23.3
2018-08-30T21:39:14.337Z,23.3
2018-08-30T21:44:22.019Z,23.2
2018-08-30T21:49:29.814Z,23.1
2018-08-30T21:54:37.674Z,23
2018-08-30T21:59:46.040Z,23
2018-08-30T22:04:53.282Z,23
2018-08-30T22:10:01.105Z,22.7
2018-08-30T22:15:09.050Z,22.6
2018-08-30T22:20:16.802Z,22.5
2018-08-30T22:25:24.615Z,22.5
2018-08-30T22:30:32.445Z,22.5
2018-08-30T22:35:40.388Z,22.4
2018-08-30T22:40:48.138Z,22.2
2018-08-30T22:45:55.970Z,22.1
2018-08-30T22:51:03.769Z,22
2018-08-30T22:56:11.823Z,21.9
2018-08-30T23:06:27.451Z,21.7
2018-08-30T23:11:35.194Z,21.7
2018-08-30T23:21:50.966Z,21.4
2018-08-30T23:26:58.857Z,21.3
2018-08-30T23:32:06.781Z,21.2
2018-08-30T23:37:14.669Z,21.1
2018-08-30T23:42:22.584Z,21
2018-08-30T23:47:30.618Z,20.8
2018-08-30T23:52:38.413Z,20.6
2018-08-30T23:57:46.419Z,20.5
